sensor_id;sensor_type;location;lat;lon;timestamp;P1;durP1;ratioP1;P2;durP2;ratioP2
6825;SDS011;3451;52.476;13.316;2022-11-20T00:01:51;17.43;;;10.33;;
6825;SDS011;3451;52.476;13.316;2022-11-20T00:04:17;18.33;;;9.97;;
6825;SDS011;3451;52.476;13.316;2022-11-20T00:06:43;18.60;;;10.60;;
6825;SDS011;3451;52.476;13.316;2022-11-20T00:09:10;18.40;;;10.17;;
6825;SDS011;3451;52.476;13.316;2022-11-20T00:11:36;16.07;;;9.60;;
6825;SDS011;3451;52.476;13.316;2022-11-20T00:14:02;19.00;;;10.23;;
6825;SDS011;3451;52.476;13.316;2022-11-20T00:16:30;15.13;;;9.47;;
6825;SDS011;3451;52.476;13.316;2022-11-20T00:18:56;17.17;;;10.40;;
6825;SDS011;3451;52.476;13.316;2022-11-20T00:21:23;15.13;;;9.73;;
6825;SDS011;3451;52.476;13.316;2022-11-20T00:23:50;14.30;;;9.37;;
6825;SDS011;3451;52.476;13.316;2022-11-20T00:26:20;15.33;;;9.57;;
6825;SDS011;3451;52.476;13.316;2022-11-20T00:28:51;18.70;;;9.97;;
6825;SDS011;3451;52.476;13.316;2022-11-20T00:31:18;16.00;;;9.80;;
6825;SDS011;3451;52.476;13.316;2022-11-20T00:33:44;17.67;;;10.33;;
6825;SDS011;3451;52.476;13.316;2022-11-20T00:36:12;16.07;;;10.43;;
6825;SDS011;3451;52.476;13.316;2022-11-20T00:38:38;15.17;;;9.20;;
6825;SDS011;3451;52.476;13.316;2022-11-20T00:41:05;17.67;;;10.27;;
6825;SDS011;3451;52.476;13.316;2022-11-20T00:43:31;14.77;;;10.00;;
6825;SDS011;3451;52.476;13.316;2022-11-20T00:46:02;14.93;;;9.90;;
6825;SDS011;3451;52.476;13.316;2022-11-20T00:48:28;17.20;;;10.30;;
6825;SDS011;3451;52.476;13.316;2022-11-20T00:50:55;15.23;;;9.43;;
6825;SDS011;3451;52.476;13.316;2022-11-20T00:53:21;17.30;;;10.20;;
6825;SDS011;3451;52.476;13.316;2022-11-20T00:55:54;14.93;;;9.77;;
6825;SDS011;3451;52.476;13.316;2022-11-20T00:58:21;16.53;;;9.90;;
6825;SDS011;3451;52.476;13.316;2022-11-20T01:00:47;17.57;;;10.47;;
6825;SDS011;3451;52.476;13.316;2022-11-20T01:03:20;16.10;;;9.87;;
6825;SDS011;3451;52.476;13.316;2022-11-20T01:05:52;15.80;;;10.20;;
6825;SDS011;3451;52.476;13.316;2022-11-20T01:08:18;23.50;;;10.80;;
6825;SDS011;3451;52.476;13.316;2022-11-20T01:10:44;16.07;;;10.60;;
6825;SDS011;3451;52.476;13.316;2022-11-20T01:13:11;16.50;;;9.80;;
6825;SDS011;3451;52.476;13.316;2022-11-20T01:15:55;17.87;;;10.20;;
6825;SDS011;3451;52.476;13.316;2022-11-20T01:18:27;16.07;;;9.93;;
6825;SDS011;3451;52.476;13.316;2022-11-20T01:20:53;15.33;;;9.60;;
6825;SDS011;3451;52.476;13.316;2022-11-20T01:23:19;17.73;;;10.20;;
6825;SDS011;3451;52.476;13.316;2022-11-20T01:25:46;17.57;;;10.40;;
6825;SDS011;3451;52.476;13.316;2022-11-20T01:28:12;17.50;;;10.17;;
6825;SDS011;3451;52.476;13.316;2022-11-20T01:30:38;17.10;;;10.03;;
6825;SDS011;3451;52.476;13.316;2022-11-20T01:33:04;16.40;;;9.97;;
6825;SDS011;3451;52.476;13.316;2022-11-20T01:35:31;17.50;;;10.03;;
6825;SDS011;3451;52.476;13.316;2022-11-20T01:37:57;19.33;;;10.87;;
6825;SDS011;3451;52.476;13.316;2022-11-20T01:40:23;15.57;;;9.70;;
6825;SDS011;3451;52.476;13.316;2022-11-20T01:42:53;18.83;;;10.60;;
6825;SDS011;3451;52.476;13.316;2022-11-20T01:48:27;18.23;;;10.37;;
6825;SDS011;3451;52.476;13.316;2022-11-20T01:50:55;17.57;;;9.83;;
6825;SDS011;3451;52.476;13.316;2022-11-20T01:53:24;16.43;;;10.03;;
6825;SDS011;3451;52.476;13.316;2022-11-20T01:55:52;16.90;;;10.27;;
6825;SDS011;3451;52.476;13.316;2022-11-20T01:58:20;14.53;;;9.63;;
6825;SDS011;3451;52.476;13.316;2022-11-20T02:00:47;15.23;;;9.70;;
6825;SDS011;3451;52.476;13.316;2022-11-20T02:03:16;15.80;;;9.80;;
6825;SDS011;3451;52.476;13.316;2022-11-20T02:08:23;19.37;;;11.03;;
6825;SDS011;3451;52.476;13.316;2022-11-20T02:10:49;16.97;;;10.17;;
6825;SDS011;3451;52.476;13.316;2022-11-20T02:13:16;16.27;;;9.93;;
6825;SDS011;3451;52.476;13.316;2022-11-20T02:16:01;17.27;;;11.17;;
6825;SDS011;3451;52.476;13.316;2022-11-20T02:18:27;16.43;;;10.67;;
6825;SDS011;3451;52.476;13.316;2022-11-20T02:20:56;19.10;;;11.43;;
6825;SDS011;3451;52.476;13.316;2022-11-20T02:23:32;15.90;;;10.53;;
6825;SDS011;3451;52.476;13.316;2022-11-20T02:26:02;16.37;;;10.20;;
6825;SDS011;3451;52.476;13.316;2022-11-20T02:28:30;17.70;;;10.27;;
6825;SDS011;3451;52.476;13.316;2022-11-20T02:30:57;18.83;;;11.50;;
6825;SDS011;3451;52.476;13.316;2022-11-20T02:33:26;19.70;;;10.97;;
6825;SDS011;3451;52.476;13.316;2022-11-20T02:35:52;19.17;;;10.53;;
6825;SDS011;3451;52.476;13.316;2022-11-20T02:38:19;19.27;;;11.17;;
6825;SDS011;3451;52.476;13.316;2022-11-20T02:40:45;16.43;;;10.03;;
6825;SDS011;3451;52.476;13.316;2022-11-20T02:43:15;17.13;;;10.90;;
6825;SDS011;3451;52.476;13.316;2022-11-20T02:45:42;19.57;;;11.03;;
6825;SDS011;3451;52.476;13.316;2022-11-20T02:48:08;15.90;;;10.17;;
6825;SDS011;3451;52.476;13.316;2022-11-20T02:50:36;17.40;;;11.10;;
6825;SDS011;3451;52.476;13.316;2022-11-20T02:53:02;16.80;;;10.77;;
6825;SDS011;3451;52.476;13.316;2022-11-20T02:55:29;19.30;;;10.90;;
6825;SDS011;3451;52.476;13.316;2022-11-20T02:57:55;18.73;;;11.03;;
6825;SDS011;3451;52.476;13.316;2022-11-20T03:00:21;18.00;;;10.47;;
6825;SDS011;3451;52.476;13.316;2022-11-20T03:02:51;18.33;;;11.07;;
6825;SDS011;3451;52.476;13.316;2022-11-20T03:05:17;18.20;;;9.87;;
6825;SDS011;3451;52.476;13.316;2022-11-20T03:07:44;18.00;;;11.37;;
6825;SDS011;3451;52.476;13.316;2022-11-20T03:10:10;16.63;;;10.77;;
6825;SDS011;3451;52.476;13.316;2022-11-20T03:12:36;17.93;;;10.17;;
6825;SDS011;3451;52.476;13.316;2022-11-20T03:15:03;17.77;;;10.83;;
6825;SDS011;3451;52.476;13.316;2022-11-20T03:17:29;19.47;;;11.13;;
6825;SDS011;3451;52.476;13.316;2022-11-20T03:19:56;17.23;;;11.13;;
6825;SDS011;3451;52.476;13.316;2022-11-20T03:22:23;19.77;;;11.30;;
6825;SDS011;3451;52.476;13.316;2022-11-20T03:24:49;19.63;;;11.47;;
6825;SDS011;3451;52.476;13.316;2022-11-20T03:27:15;16.60;;;10.53;;
6825;SDS011;3451;52.476;13.316;2022-11-20T03:29:41;17.37;;;11.27;;
6825;SDS011;3451;52.476;13.316;2022-11-20T03:32:07;18.03;;;10.67;;
6825;SDS011;3451;52.476;13.316;2022-11-20T03:34:34;18.90;;;11.33;;
6825;SDS011;3451;52.476;13.316;2022-11-20T03:37:00;18.00;;;11.10;;
6825;SDS011;3451;52.476;13.316;2022-11-20T03:39:26;17.07;;;11.07;;
6825;SDS011;3451;52.476;13.316;2022-11-20T03:41:52;18.03;;;10.90;;
6825;SDS011;3451;52.476;13.316;2022-11-20T03:44:20;19.23;;;10.77;;
6825;SDS011;3451;52.476;13.316;2022-11-20T03:46:47;19.13;;;11.47;;
6825;SDS011;3451;52.476;13.316;2022-11-20T03:49:13;18.57;;;11.03;;
6825;SDS011;3451;52.476;13.316;2022-11-20T03:51:39;17.97;;;10.97;;
6825;SDS011;3451;52.476;13.316;2022-11-20T03:54:07;20.90;;;11.33;;
6825;SDS011;3451;52.476;13.316;2022-11-20T03:56:34;19.13;;;11.77;;
6825;SDS011;3451;52.476;13.316;2022-11-20T03:59:01;17.37;;;10.97;;
6825;SDS011;3451;52.476;13.316;2022-11-20T04:01:29;19.73;;;11.73;;
6825;SDS011;3451;52.476;13.316;2022-11-20T04:03:56;19.63;;;11.50;;
6825;SDS011;3451;52.476;13.316;2022-11-20T04:06:23;16.50;;;10.60;;
6825;SDS011;3451;52.476;13.316;2022-11-20T04:08:50;19.43;;;11.20;;
6825;SDS011;3451;52.476;13.316;2022-11-20T04:11:26;20.57;;;11.57;;
6825;SDS011;3451;52.476;13.316;2022-11-20T04:13:53;19.83;;;11.63;;
6825;SDS011;3451;52.476;13.316;2022-11-20T04:16:20;18.33;;;11.33;;
6825;SDS011;3451;52.476;13.316;2022-11-20T04:18:47;19.80;;;11.30;;
6825;SDS011;3451;52.476;13.316;2022-11-20T04:21:13;19.63;;;11.30;;
6825;SDS011;3451;52.476;13.316;2022-11-20T04:23:39;18.90;;;11.13;;
6825;SDS011;3451;52.476;13.316;2022-11-20T04:26:09;17.00;;;10.67;;
6825;SDS011;3451;52.476;13.316;2022-11-20T04:28:36;23.23;;;12.93;;
6825;SDS011;3451;52.476;13.316;2022-11-20T04:31:03;20.87;;;11.37;;
6825;SDS011;3451;52.476;13.316;2022-11-20T04:33:29;21.70;;;11.40;;
6825;SDS011;3451;52.476;13.316;2022-11-20T04:36:00;20.87;;;12.27;;
6825;SDS011;3451;52.476;13.316;2022-11-20T04:38:26;19.67;;;11.80;;
6825;SDS011;3451;52.476;13.316;2022-11-20T04:40:55;20.07;;;11.63;;
6825;SDS011;3451;52.476;13.316;2022-11-20T04:43:22;19.57;;;11.20;;
6825;SDS011;3451;52.476;13.316;2022-11-20T04:45:51;19.13;;;11.23;;
6825;SDS011;3451;52.476;13.316;2022-11-20T04:48:18;21.17;;;12.43;;
6825;SDS011;3451;52.476;13.316;2022-11-20T04:50:44;22.40;;;12.37;;
6825;SDS011;3451;52.476;13.316;2022-11-20T04:53:10;20.67;;;11.47;;
6825;SDS011;3451;52.476;13.316;2022-11-20T04:55:36;20.83;;;11.50;;
6825;SDS011;3451;52.476;13.316;2022-11-20T04:58:03;20.13;;;12.20;;
6825;SDS011;3451;52.476;13.316;2022-11-20T05:00:29;19.40;;;11.00;;
6825;SDS011;3451;52.476;13.316;2022-11-20T05:02:55;17.50;;;11.40;;
6825;SDS011;3451;52.476;13.316;2022-11-20T05:05:21;19.70;;;12.53;;
6825;SDS011;3451;52.476;13.316;2022-11-20T05:07:48;20.37;;;12.23;;
6825;SDS011;3451;52.476;13.316;2022-11-20T05:10:14;19.10;;;11.40;;
6825;SDS011;3451;52.476;13.316;2022-11-20T05:12:41;20.00;;;11.70;;
6825;SDS011;3451;52.476;13.316;2022-11-20T05:15:07;20.57;;;12.63;;
6825;SDS011;3451;52.476;13.316;2022-11-20T05:17:34;20.50;;;12.13;;
6825;SDS011;3451;52.476;13.316;2022-11-20T05:20:00;21.10;;;12.57;;
6825;SDS011;3451;52.476;13.316;2022-11-20T05:22:26;19.13;;;11.70;;
6825;SDS011;3451;52.476;13.316;2022-11-20T05:24:52;18.97;;;11.80;;
6825;SDS011;3451;52.476;13.316;2022-11-20T05:27:19;19.67;;;11.87;;
6825;SDS011;3451;52.476;13.316;2022-11-20T05:29:45;19.70;;;12.13;;
6825;SDS011;3451;52.476;13.316;2022-11-20T05:32:11;23.23;;;12.20;;
6825;SDS011;3451;52.476;13.316;2022-11-20T05:34:41;19.97;;;12.43;;
6825;SDS011;3451;52.476;13.316;2022-11-20T05:37:07;21.80;;;12.37;;
6825;SDS011;3451;52.476;13.316;2022-11-20T05:39:33;20.50;;;12.30;;
6825;SDS011;3451;52.476;13.316;2022-11-20T05:41:59;20.73;;;12.60;;
6825;SDS011;3451;52.476;13.316;2022-11-20T05:44:44;20.43;;;12.03;;
6825;SDS011;3451;52.476;13.316;2022-11-20T05:47:10;20.73;;;11.87;;
6825;SDS011;3451;52.476;13.316;2022-11-20T05:49:37;18.50;;;11.77;;
6825;SDS011;3451;52.476;13.316;2022-11-20T05:52:03;20.77;;;12.23;;
6825;SDS011;3451;52.476;13.316;2022-11-20T05:54:29;19.20;;;11.93;;
6825;SDS011;3451;52.476;13.316;2022-11-20T05:56:56;20.80;;;11.90;;
6825;SDS011;3451;52.476;13.316;2022-11-20T05:59:22;20.00;;;11.50;;
6825;SDS011;3451;52.476;13.316;2022-11-20T06:01:48;19.40;;;11.47;;
6825;SDS011;3451;52.476;13.316;2022-11-20T06:04:15;23.57;;;12.50;;
6825;SDS011;3451;52.476;13.316;2022-11-20T06:06:41;21.27;;;12.57;;
6825;SDS011;3451;52.476;13.316;2022-11-20T06:09:07;17.87;;;12.00;;
6825;SDS011;3451;52.476;13.316;2022-11-20T06:11:33;21.07;;;12.17;;
6825;SDS011;3451;52.476;13.316;2022-11-20T06:14:00;22.07;;;12.33;;
6825;SDS011;3451;52.476;13.316;2022-11-20T06:16:26;18.57;;;11.20;;
6825;SDS011;3451;52.476;13.316;2022-11-20T06:18:52;20.00;;;12.40;;
6825;SDS011;3451;52.476;13.316;2022-11-20T06:21:20;25.87;;;13.20;;
6825;SDS011;3451;52.476;13.316;2022-11-20T06:23:47;19.10;;;11.70;;
6825;SDS011;3451;52.476;13.316;2022-11-20T06:26:18;23.13;;;13.20;;
6825;SDS011;3451;52.476;13.316;2022-11-20T06:28:44;21.33;;;12.87;;
6825;SDS011;3451;52.476;13.316;2022-11-20T06:31:12;20.90;;;12.40;;
6825;SDS011;3451;52.476;13.316;2022-11-20T06:33:39;21.47;;;12.37;;
6825;SDS011;3451;52.476;13.316;2022-11-20T06:36:05;21.43;;;12.17;;
6825;SDS011;3451;52.476;13.316;2022-11-20T06:38:36;20.00;;;11.97;;
6825;SDS011;3451;52.476;13.316;2022-11-20T06:41:03;21.67;;;12.77;;
6825;SDS011;3451;52.476;13.316;2022-11-20T06:43:29;20.20;;;12.57;;
6825;SDS011;3451;52.476;13.316;2022-11-20T06:45:56;19.53;;;11.17;;
6825;SDS011;3451;52.476;13.316;2022-11-20T06:48:23;22.83;;;12.63;;
6825;SDS011;3451;52.476;13.316;2022-11-20T06:50:50;19.83;;;12.17;;
6825;SDS011;3451;52.476;13.316;2022-11-20T06:53:16;21.13;;;12.77;;
6825;SDS011;3451;52.476;13.316;2022-11-20T06:55:43;21.07;;;12.87;;
6825;SDS011;3451;52.476;13.316;2022-11-20T06:58:10;21.00;;;12.37;;
6825;SDS011;3451;52.476;13.316;2022-11-20T07:00:36;21.87;;;12.60;;
6825;SDS011;3451;52.476;13.316;2022-11-20T07:03:03;18.03;;;12.27;;
6825;SDS011;3451;52.476;13.316;2022-11-20T07:05:29;21.30;;;12.93;;
6825;SDS011;3451;52.476;13.316;2022-11-20T07:07:58;20.73;;;11.90;;
6825;SDS011;3451;52.476;13.316;2022-11-20T07:10:25;21.63;;;13.07;;
6825;SDS011;3451;52.476;13.316;2022-11-20T07:12:52;24.07;;;13.17;;
6825;SDS011;3451;52.476;13.316;2022-11-20T07:15:19;22.13;;;12.97;;
6825;SDS011;3451;52.476;13.316;2022-11-20T07:17:46;21.77;;;13.00;;
6825;SDS011;3451;52.476;13.316;2022-11-20T07:20:12;25.40;;;12.90;;
6825;SDS011;3451;52.476;13.316;2022-11-20T07:22:38;18.67;;;12.17;;
6825;SDS011;3451;52.476;13.316;2022-11-20T07:25:05;19.97;;;11.80;;
6825;SDS011;3451;52.476;13.316;2022-11-20T07:27:32;21.93;;;13.43;;
6825;SDS011;3451;52.476;13.316;2022-11-20T07:29:58;20.40;;;12.33;;
6825;SDS011;3451;52.476;13.316;2022-11-20T07:32:24;20.07;;;12.87;;
6825;SDS011;3451;52.476;13.316;2022-11-20T07:34:54;23.17;;;13.60;;
6825;SDS011;3451;52.476;13.316;2022-11-20T07:37:20;19.77;;;11.93;;
6825;SDS011;3451;52.476;13.316;2022-11-20T07:39:46;21.97;;;12.90;;
6825;SDS011;3451;52.476;13.316;2022-11-20T07:42:12;21.77;;;13.67;;
6825;SDS011;3451;52.476;13.316;2022-11-20T07:44:39;25.83;;;12.70;;
6825;SDS011;3451;52.476;13.316;2022-11-20T07:47:05;22.77;;;12.53;;
6825;SDS011;3451;52.476;13.316;2022-11-20T07:49:31;19.83;;;12.97;;
6825;SDS011;3451;52.476;13.316;2022-11-20T07:51:58;23.20;;;13.57;;
6825;SDS011;3451;52.476;13.316;2022-11-20T07:54:30;25.00;;;14.27;;
6825;SDS011;3451;52.476;13.316;2022-11-20T07:56:56;21.73;;;12.97;;
6825;SDS011;3451;52.476;13.316;2022-11-20T07:59:22;22.37;;;13.47;;
6825;SDS011;3451;52.476;13.316;2022-11-20T08:01:49;23.90;;;13.43;;
6825;SDS011;3451;52.476;13.316;2022-11-20T08:04:19;25.03;;;12.70;;
6825;SDS011;3451;52.476;13.316;2022-11-20T08:06:45;24.67;;;12.90;;
6825;SDS011;3451;52.476;13.316;2022-11-20T08:09:11;24.67;;;13.63;;
6825;SDS011;3451;52.476;13.316;2022-11-20T08:11:37;24.23;;;12.73;;
6825;SDS011;3451;52.476;13.316;2022-11-20T08:14:22;23.17;;;12.80;;
6825;SDS011;3451;52.476;13.316;2022-11-20T08:16:49;21.20;;;12.77;;
6825;SDS011;3451;52.476;13.316;2022-11-20T08:19:16;23.60;;;13.43;;
6825;SDS011;3451;52.476;13.316;2022-11-20T08:21:42;24.83;;;13.60;;
6825;SDS011;3451;52.476;13.316;2022-11-20T08:24:09;24.87;;;13.10;;
6825;SDS011;3451;52.476;13.316;2022-11-20T08:26:36;22.53;;;13.07;;
6825;SDS011;3451;52.476;13.316;2022-11-20T08:29:03;24.07;;;14.20;;
6825;SDS011;3451;52.476;13.316;2022-11-20T08:31:29;20.83;;;13.00;;
6825;SDS011;3451;52.476;13.316;2022-11-20T08:33:56;23.90;;;13.37;;
6825;SDS011;3451;52.476;13.316;2022-11-20T08:36:23;23.23;;;13.97;;
6825;SDS011;3451;52.476;13.316;2022-11-20T08:38:50;26.00;;;14.53;;
6825;SDS011;3451;52.476;13.316;2022-11-20T08:41:17;21.43;;;12.93;;
6825;SDS011;3451;52.476;13.316;2022-11-20T08:44:00;21.27;;;12.67;;
6825;SDS011;3451;52.476;13.316;2022-11-20T08:46:30;21.80;;;13.20;;
6825;SDS011;3451;52.476;13.316;2022-11-20T08:48:59;23.10;;;13.33;;
6825;SDS011;3451;52.476;13.316;2022-11-20T08:51:26;24.80;;;13.80;;
6825;SDS011;3451;52.476;13.316;2022-11-20T08:53:52;24.90;;;14.17;;
6825;SDS011;3451;52.476;13.316;2022-11-20T08:56:18;23.37;;;13.13;;
6825;SDS011;3451;52.476;13.316;2022-11-20T08:58:44;23.43;;;13.20;;
6825;SDS011;3451;52.476;13.316;2022-11-20T09:01:31;23.90;;;13.67;;
6825;SDS011;3451;52.476;13.316;2022-11-20T09:03:57;21.70;;;12.90;;
6825;SDS011;3451;52.476;13.316;2022-11-20T09:06:23;25.53;;;14.67;;
6825;SDS011;3451;52.476;13.316;2022-11-20T09:08:53;23.03;;;13.87;;
6825;SDS011;3451;52.476;13.316;2022-11-20T09:11:19;25.70;;;13.70;;
6825;SDS011;3451;52.476;13.316;2022-11-20T09:13:46;26.53;;;13.73;;
6825;SDS011;3451;52.476;13.316;2022-11-20T09:16:12;24.60;;;14.07;;
6825;SDS011;3451;52.476;13.316;2022-11-20T09:18:38;19.80;;;12.20;;
6825;SDS011;3451;52.476;13.316;2022-11-20T09:21:05;22.47;;;13.63;;
6825;SDS011;3451;52.476;13.316;2022-11-20T09:23:33;25.50;;;13.80;;
6825;SDS011;3451;52.476;13.316;2022-11-20T09:26:12;23.63;;;13.53;;
6825;SDS011;3451;52.476;13.316;2022-11-20T09:28:39;21.37;;;12.70;;
6825;SDS011;3451;52.476;13.316;2022-11-20T09:31:09;21.80;;;12.77;;
6825;SDS011;3451;52.476;13.316;2022-11-20T09:33:42;21.30;;;13.30;;
6825;SDS011;3451;52.476;13.316;2022-11-20T09:36:09;23.00;;;13.37;;
6825;SDS011;3451;52.476;13.316;2022-11-20T09:38:35;24.60;;;13.43;;
6825;SDS011;3451;52.476;13.316;2022-11-20T09:41:05;21.57;;;13.03;;
6825;SDS011;3451;52.476;13.316;2022-11-20T09:43:42;20.83;;;12.60;;
6825;SDS011;3451;52.476;13.316;2022-11-20T09:46:14;23.63;;;13.33;;
6825;SDS011;3451;52.476;13.316;2022-11-20T09:48:53;19.73;;;12.50;;
6825;SDS011;3451;52.476;13.316;2022-11-20T09:51:35;22.00;;;12.73;;
6825;SDS011;3451;52.476;13.316;2022-11-20T09:54:07;23.40;;;13.60;;
6825;SDS011;3451;52.476;13.316;2022-11-20T09:56:39;20.17;;;13.17;;
6825;SDS011;3451;52.476;13.316;2022-11-20T09:59:06;21.43;;;14.10;;
6825;SDS011;3451;52.476;13.316;2022-11-20T10:01:35;20.97;;;13.37;;
6825;SDS011;3451;52.476;13.316;2022-11-20T10:06:29;20.67;;;13.10;;
6825;SDS011;3451;52.476;13.316;2022-11-20T10:09:00;22.87;;;13.67;;
6825;SDS011;3451;52.476;13.316;2022-11-20T10:11:46;21.50;;;13.03;;
6825;SDS011;3451;52.476;13.316;2022-11-20T10:14:16;19.47;;;12.77;;
6825;SDS011;3451;52.476;13.316;2022-11-20T10:16:57;19.77;;;12.23;;
6825;SDS011;3451;52.476;13.316;2022-11-20T10:24:38;21.37;;;12.77;;
6825;SDS011;3451;52.476;13.316;2022-11-20T10:27:13;20.73;;;11.87;;
6825;SDS011;3451;52.476;13.316;2022-11-20T10:29:47;21.60;;;13.03;;
6825;SDS011;3451;52.476;13.316;2022-11-20T10:32:16;19.47;;;12.30;;
6825;SDS011;3451;52.476;13.316;2022-11-20T10:37:12;21.57;;;13.23;;
6825;SDS011;3451;52.476;13.316;2022-11-20T10:42:27;21.77;;;12.70;;
6825;SDS011;3451;52.476;13.316;2022-11-20T10:44:58;20.10;;;12.70;;
6825;SDS011;3451;52.476;13.316;2022-11-20T10:47:32;19.70;;;11.90;;
6825;SDS011;3451;52.476;13.316;2022-11-20T10:50:01;19.17;;;12.07;;
6825;SDS011;3451;52.476;13.316;2022-11-20T10:55:06;21.77;;;12.93;;
6825;SDS011;3451;52.476;13.316;2022-11-20T10:57:52;20.67;;;12.40;;
6825;SDS011;3451;52.476;13.316;2022-11-20T11:00:20;22.07;;;12.80;;
6825;SDS011;3451;52.476;13.316;2022-11-20T11:02:48;22.73;;;12.30;;
6825;SDS011;3451;52.476;13.316;2022-11-20T11:05:34;18.03;;;12.40;;
6825;SDS011;3451;52.476;13.316;2022-11-20T11:08:02;21.27;;;12.57;;
6825;SDS011;3451;52.476;13.316;2022-11-20T11:10:44;20.47;;;12.47;;
6825;SDS011;3451;52.476;13.316;2022-11-20T11:13:26;20.50;;;11.87;;
6825;SDS011;3451;52.476;13.316;2022-11-20T11:15:52;21.10;;;12.47;;
6825;SDS011;3451;52.476;13.316;2022-11-20T11:18:26;21.43;;;12.80;;
6825;SDS011;3451;52.476;13.316;2022-11-20T11:20:54;17.77;;;12.13;;
6825;SDS011;3451;52.476;13.316;2022-11-20T11:23:29;19.90;;;12.43;;
6825;SDS011;3451;52.476;13.316;2022-11-20T11:25:57;21.27;;;12.27;;
6825;SDS011;3451;52.476;13.316;2022-11-20T11:28:24;19.67;;;11.53;;
6825;SDS011;3451;52.476;13.316;2022-11-20T11:30:52;20.17;;;11.60;;
6825;SDS011;3451;52.476;13.316;2022-11-20T11:33:19;17.43;;;10.87;;
6825;SDS011;3451;52.476;13.316;2022-11-20T11:35:47;20.17;;;11.97;;
6825;SDS011;3451;52.476;13.316;2022-11-20T11:38:18;21.53;;;12.10;;
6825;SDS011;3451;52.476;13.316;2022-11-20T11:40:45;21.27;;;12.40;;
6825;SDS011;3451;52.476;13.316;2022-11-20T11:43:26;20.73;;;12.03;;
6825;SDS011;3451;52.476;13.316;2022-11-20T11:51:56;17.33;;;11.23;;
6825;SDS011;3451;52.476;13.316;2022-11-20T11:54:29;18.93;;;11.10;;
6825;SDS011;3451;52.476;13.316;2022-11-20T11:56:59;18.63;;;11.40;;
6825;SDS011;3451;52.476;13.316;2022-11-20T11:59:45;17.00;;;10.83;;
6825;SDS011;3451;52.476;13.316;2022-11-20T12:02:18;18.10;;;10.93;;
6825;SDS011;3451;52.476;13.316;2022-11-20T12:04:50;17.73;;;10.80;;
6825;SDS011;3451;52.476;13.316;2022-11-20T12:07:37;16.93;;;10.77;;
6825;SDS011;3451;52.476;13.316;2022-11-20T12:10:17;16.63;;;10.67;;
6825;SDS011;3451;52.476;13.316;2022-11-20T12:12:46;18.10;;;10.80;;
6825;SDS011;3451;52.476;13.316;2022-11-20T12:15:16;15.00;;;9.70;;
6825;SDS011;3451;52.476;13.316;2022-11-20T12:17:45;15.93;;;10.60;;
6825;SDS011;3451;52.476;13.316;2022-11-20T12:20:13;15.83;;;9.10;;
6825;SDS011;3451;52.476;13.316;2022-11-20T12:25:18;18.13;;;9.73;;
6825;SDS011;3451;52.476;13.316;2022-11-20T12:27:49;14.77;;;9.10;;
6825;SDS011;3451;52.476;13.316;2022-11-20T12:30:18;14.57;;;8.17;;
6825;SDS011;3451;52.476;13.316;2022-11-20T12:43:24;13.37;;;7.23;;
6825;SDS011;3451;52.476;13.316;2022-11-20T12:46:23;9.67;;;6.37;;
6825;SDS011;3451;52.476;13.316;2022-11-20T12:49:02;12.23;;;7.57;;
6825;SDS011;3451;52.476;13.316;2022-11-20T12:51:39;12.13;;;6.53;;
6825;SDS011;3451;52.476;13.316;2022-11-20T12:59:21;10.57;;;7.33;;
6825;SDS011;3451;52.476;13.316;2022-11-20T13:01:51;12.27;;;7.70;;
6825;SDS011;3451;52.476;13.316;2022-11-20T13:06:57;11.70;;;7.33;;
6825;SDS011;3451;52.476;13.316;2022-11-20T13:09:24;14.77;;;8.17;;
6825;SDS011;3451;52.476;13.316;2022-11-20T13:14:40;12.03;;;7.93;;
6825;SDS011;3451;52.476;13.316;2022-11-20T13:19:35;10.50;;;7.07;;
6825;SDS011;3451;52.476;13.316;2022-11-20T13:22:01;11.97;;;7.63;;
6825;SDS011;3451;52.476;13.316;2022-11-20T13:24:28;12.50;;;7.63;;
6825;SDS011;3451;52.476;13.316;2022-11-20T13:27:17;11.73;;;7.40;;
6825;SDS011;3451;52.476;13.316;2022-11-20T13:29:47;12.20;;;7.50;;
6825;SDS011;3451;52.476;13.316;2022-11-20T13:32:25;11.53;;;7.07;;
6825;SDS011;3451;52.476;13.316;2022-11-20T13:34:59;12.43;;;7.83;;
6825;SDS011;3451;52.476;13.316;2022-11-20T13:37:28;11.63;;;7.70;;
6825;SDS011;3451;52.476;13.316;2022-11-20T13:42:54;12.53;;;7.63;;
6825;SDS011;3451;52.476;13.316;2022-11-20T13:45:25;11.33;;;7.50;;
6825;SDS011;3451;52.476;13.316;2022-11-20T13:47:52;10.53;;;7.10;;
6825;SDS011;3451;52.476;13.316;2022-11-20T13:50:19;15.97;;;7.93;;
6825;SDS011;3451;52.476;13.316;2022-11-20T13:52:51;12.43;;;8.10;;
6825;SDS011;3451;52.476;13.316;2022-11-20T13:55:23;13.33;;;7.17;;
6825;SDS011;3451;52.476;13.316;2022-11-20T13:58:04;12.17;;;7.50;;
6825;SDS011;3451;52.476;13.316;2022-11-20T14:00:32;12.23;;;7.40;;
6825;SDS011;3451;52.476;13.316;2022-11-20T14:02:59;12.17;;;7.50;;
6825;SDS011;3451;52.476;13.316;2022-11-20T14:05:34;11.87;;;7.47;;
6825;SDS011;3451;52.476;13.316;2022-11-20T14:08:02;13.47;;;7.70;;
6825;SDS011;3451;52.476;13.316;2022-11-20T14:10:29;11.87;;;7.10;;
6825;SDS011;3451;52.476;13.316;2022-11-20T14:12:57;11.67;;;6.80;;
6825;SDS011;3451;52.476;13.316;2022-11-20T14:15:24;12.63;;;7.93;;
6825;SDS011;3451;52.476;13.316;2022-11-20T14:17:51;11.27;;;6.70;;
6825;SDS011;3451;52.476;13.316;2022-11-20T14:20:17;10.33;;;6.73;;
6825;SDS011;3451;52.476;13.316;2022-11-20T14:22:49;10.37;;;6.93;;
6825;SDS011;3451;52.476;13.316;2022-11-20T14:27:53;9.70;;;6.33;;
6825;SDS011;3451;52.476;13.316;2022-11-20T14:30:24;9.60;;;6.00;;
6825;SDS011;3451;52.476;13.316;2022-11-20T14:32:51;11.33;;;6.53;;
6825;SDS011;3451;52.476;13.316;2022-11-20T14:35:25;9.80;;;6.43;;
6825;SDS011;3451;52.476;13.316;2022-11-20T14:37:52;8.67;;;6.03;;
6825;SDS011;3451;52.476;13.316;2022-11-20T14:40:23;9.73;;;6.00;;
6825;SDS011;3451;52.476;13.316;2022-11-20T14:42:50;14.37;;;7.23;;
6825;SDS011;3451;52.476;13.316;2022-11-20T14:45:16;10.83;;;6.70;;
6825;SDS011;3451;52.476;13.316;2022-11-20T14:47:43;11.53;;;6.73;;
6825;SDS011;3451;52.476;13.316;2022-11-20T14:50:20;12.60;;;7.63;;
6825;SDS011;3451;52.476;13.316;2022-11-20T14:52:52;12.17;;;7.60;;
6825;SDS011;3451;52.476;13.316;2022-11-20T14:55:25;12.17;;;7.60;;
6825;SDS011;3451;52.476;13.316;2022-11-20T14:57:54;12.00;;;7.57;;
6825;SDS011;3451;52.476;13.316;2022-11-20T15:00:21;12.93;;;7.43;;
6825;SDS011;3451;52.476;13.316;2022-11-20T15:02:48;13.70;;;8.57;;
6825;SDS011;3451;52.476;13.316;2022-11-20T15:05:16;12.97;;;7.77;;
6825;SDS011;3451;52.476;13.316;2022-11-20T15:07:44;12.43;;;8.07;;
6825;SDS011;3451;52.476;13.316;2022-11-20T15:10:27;12.87;;;7.60;;
6825;SDS011;3451;52.476;13.316;2022-11-20T15:12:54;12.37;;;8.40;;
6825;SDS011;3451;52.476;13.316;2022-11-20T15:16:09;11.53;;;7.80;;
6825;SDS011;3451;52.476;13.316;2022-11-20T15:18:12;11.60;;;7.67;;
6825;SDS011;3451;52.476;13.316;2022-11-20T15:20:39;12.60;;;8.17;;
6825;SDS011;3451;52.476;13.316;2022-11-20T15:23:11;12.33;;;7.97;;
6825;SDS011;3451;52.476;13.316;2022-11-20T15:25:38;17.70;;;9.37;;
6825;SDS011;3451;52.476;13.316;2022-11-20T15:28:07;14.03;;;9.20;;
6825;SDS011;3451;52.476;13.316;2022-11-20T15:30:38;12.73;;;8.70;;
6825;SDS011;3451;52.476;13.316;2022-11-20T15:33:04;14.07;;;8.67;;
6825;SDS011;3451;52.476;13.316;2022-11-20T15:35:30;16.07;;;8.57;;
6825;SDS011;3451;52.476;13.316;2022-11-20T15:37:57;15.93;;;8.57;;
6825;SDS011;3451;52.476;13.316;2022-11-20T15:40:23;15.83;;;7.80;;
6825;SDS011;3451;52.476;13.316;2022-11-20T15:42:49;18.80;;;8.83;;
6825;SDS011;3451;52.476;13.316;2022-11-20T15:45:40;12.40;;;8.83;;
6825;SDS011;3451;52.476;13.316;2022-11-20T15:48:08;13.03;;;8.50;;